Time;durP1;ratioP1;P1;durP2;ratioP2;P2;SDS_P1;SDS_P2;PMS_P1;PMS_P2;Temp;Humidity;BMP_temperature;BMP_pressure;BME280_temperature;BME280_humidity;BME280_pressure;Samples;Min_cycle;Max_cycle;Signal;HPM_P1;HPM_P2
2022/01/12 00:00:56;;;;;;;276.20;88.55;;;3.70;99.90;;;;;;5035238;28;20468;-77
2022/01/12 00:03:22;;;;;;;242.40;83.13;;;3.70;99.90;;;;;;5035206;28;20411;-78
2022/01/12 00:05:48;;;;;;;296.15;90.13;;;3.70;99.90;;;;;;5051069;28;20447;-76
2022/01/12 00:08:14;;;;;;;299.52;91.93;;;3.70;99.90;;;;;;5050441;28;20406;-76
2022/01/12 00:10:40;;;;;;;279.70;87.70;;;3.70;99.90;;;;;;5051109;28;20415;-77
2022/01/12 00:13:06;;;;;;;276.77;87.60;;;3.70;99.90;;;;;;5051054;28;20407;-77
2022/01/12 00:15:32;;;;;;;281.73;88.20;;;3.70;99.90;;;;;;5034442;28;20490;-77
2022/01/12 00:17:57;;;;;;;289.60;88.03;;;3.70;99.90;;;;;;5050845;28;20408;-77
2022/01/12 00:20:23;;;;;;;329.93;92.80;;;3.80;99.90;;;;;;5051571;28;21135;-77
2022/01/12 00:22:49;;;;;;;337.35;94.65;;;3.80;99.90;;;;;;5051047;28;21000;-76
2022/01/12 00:33:15;;;;;;;390.55;101.07;;;3.80;99.90;;;;;;5050733;28;20491;-77
2022/01/12 00:35:42;;;;;;;413.10;104.28;;;3.80;99.90;;;;;;5051058;28;20404;-77
2022/01/12 00:38:09;;;;;;;450.50;108.68;;;3.80;99.90;;;;;;5050984;28;20972;-77
2022/01/12 00:40:40;;;;;;;416.58;100.90;;;3.80;99.90;;;;;;5050411;28;20408;-77
2022/01/12 00:43:06;;;;;;;447.23;102.88;;;3.80;99.90;;;;;;5033912;28;20400;-77
2022/01/12 00:45:33;;;;;;;539.25;119.22;;;3.80;99.90;;;;;;5050744;28;21050;-77
2022/01/12 00:47:58;;;;;;;546.20;119.47;;;3.80;99.90;;;;;;5066630;28;20398;-77
2022/01/12 00:50:24;;;;;;;488.20;111.57;;;3.80;99.90;;;;;;5070011;28;20773;-76
2022/01/12 00:52:50;;;;;;;449.83;108.37;;;3.80;99.90;;;;;;5070724;28;20406;-77
2022/01/12 00:55:16;;;;;;;486.80;111.00;;;3.80;99.90;;;;;;5070394;28;20918;-76
2022/01/12 00:57:42;;;;;;;600.58;126.97;;;3.80;99.90;;;;;;5069936;28;20406;-77
2022/01/12 01:00:09;;;;;;;546.23;121.83;;;3.80;99.90;;;;;;5070283;28;20488;-77
2022/01/12 01:02:34;;;;;;;556.47;119.35;;;3.90;99.90;;;;;;5070488;28;20782;-77
2022/01/12 01:05:01;;;;;;;536.30;116.13;;;3.90;99.90;;;;;;5070190;28;20462;-77
2022/01/12 01:07:27;;;;;;;628.17;124.32;;;3.90;99.90;;;;;;5069713;28;20485;-74
2022/01/12 01:10:03;;;;;;;558.80;122.18;;;3.90;99.90;;;;;;5069327;28;20436;-76
2022/01/12 01:12:28;;;;;;;628.05;124.57;;;3.90;99.90;;;;;;5069389;28;20406;-76
2022/01/12 01:15:04;;;;;;;646.20;132.93;;;3.90;99.90;;;;;;5069326;28;20927;-76
2022/01/12 01:25:50;;;;;;;704.80;137.57;;;3.90;99.90;;;;;;5069777;28;20417;-76
2022/01/12 01:28:17;;;;;;;721.47;135.07;;;3.90;99.90;;;;;;5069399;28;20436;-76
2022/01/12 01:30:44;;;;;;;755.88;140.32;;;3.90;99.90;;;;;;5069654;28;20982;-76
2022/01/12 01:33:12;;;;;;;676.45;128.13;;;3.90;99.90;;;;;;5069365;28;20403;-76
2022/01/12 01:35:41;;;;;;;887.88;147.02;;;4.00;99.90;;;;;;5069426;28;20404;-76
2022/01/12 01:38:07;;;;;;;746.90;138.75;;;4.00;99.90;;;;;;5069585;28;20485;-76
2022/01/12 01:40:36;;;;;;;874.53;151.23;;;4.00;99.90;;;;;;5069646;28;20416;-77
2022/01/12 01:53:49;;;;;;;907.63;141.73;;;4.00;99.90;;;;;;5049249;28;20983;-77
2022/01/12 01:56:16;;;;;;;1052.45;155.68;;;4.00;99.90;;;;;;5032618;28;20612;-77
2022/01/12 01:58:41;;;;;;;819.77;137.23;;;4.00;99.90;;;;;;5048921;28;20407;-76
2022/01/12 02:01:07;;;;;;;735.20;131.13;;;4.00;99.90;;;;;;5049087;28;20431;-77
2022/01/12 02:03:33;;;;;;;859.70;136.63;;;4.00;99.90;;;;;;5048969;28;20457;-77
2022/01/12 02:05:59;;;;;;;675.00;118.15;;;4.00;99.90;;;;;;5049100;28;20431;-77
2022/01/12 02:08:26;;;;;;;704.22;118.38;;;4.10;99.90;;;;;;5031677;28;20406;-77
2022/01/12 02:10:57;;;;;;;647.53;114.13;;;4.10;99.90;;;;;;5048890;28;20538;-77
2022/01/12 02:13:24;;;;;;;801.15;126.22;;;4.10;99.90;;;;;;5032693;28;20531;-77
2022/01/12 02:15:51;;;;;;;544.70;101.23;;;4.10;99.90;;;;;;5067210;28;20406;-77
2022/01/12 02:40:23;;;;;;;515.38;100.80;;;4.20;99.90;;;;;;5052976;28;20776;-77
2022/01/12 02:42:59;;;;;;;560.10;104.65;;;4.20;99.90;;;;;;5052845;28;20407;-77
2022/01/12 02:51:09;;;;;;;412.35;84.93;;;4.10;99.90;;;;;;5073071;28;20468;-77
2022/01/12 02:53:40;;;;;;;486.13;91.70;;;4.00;99.90;;;;;;5072374;28;20413;-77
2022/01/12 02:56:28;;;;;;;529.83;95.65;;;4.00;99.90;;;;;;5072345;28;20406;-77
2022/01/12 02:58:56;;;;;;;716.38;108.80;;;3.90;99.90;;;;;;5073570;28;20397;-77
2022/01/12 03:03:53;;;;;;;1290.13;146.33;;;3.80;99.90;;;;;;5073868;28;20410;-77
2022/01/12 03:06:24;;;;;;;973.60;122.25;;;3.70;99.90;;;;;;5073515;28;20435;-76
2022/01/12 03:08:50;;;;;;;1168.85;138.73;;;3.60;99.90;;;;;;5048144;28;20438;-77
2022/01/12 03:11:18;;;;;;;775.47;111.05;;;3.60;99.90;;;;;;5066963;28;20413;-77
2022/01/12 03:13:44;;;;;;;1278.43;145.30;;;3.60;99.90;;;;;;5057084;28;20408;-76
2022/01/12 03:16:16;;;;;;;1251.65;143.48;;;3.50;99.90;;;;;;5037553;28;20418;-77
2022/01/12 03:18:43;;;;;;;1263.32;136.60;;;3.50;99.90;;;;;;5073201;28;20401;-77
2022/01/12 03:21:09;;;;;;;1207.00;130.20;;;3.40;99.90;;;;;;5072959;28;20494;-77
2022/01/12 03:23:36;;;;;;;1168.70;125.47;;;3.30;99.90;;;;;;5072820;28;21340;-77
2022/01/12 03:26:02;;;;;;;1029.88;116.30;;;3.30;99.90;;;;;;5060646;28;20408;-77
2022/01/12 03:28:28;;;;;;;1236.93;137.40;;;3.20;99.90;;;;;;5053220;28;20781;-77
2022/01/12 03:31:10;;;;;;;1253.07;137.52;;;3.20;99.90;;;;;;5052405;28;20412;-76
2022/01/12 03:37:05;;;;;;;881.13;102.40;;;3.10;99.90;;;;;;5051858;28;20972;-77
2022/01/12 03:38:59;;;;;;;1115.03;124.22;;;3.10;99.90;;;;;;5045269;28;20910;-76
2022/01/12 03:41:27;;;;;;;915.38;109.68;;;3.00;99.90;;;;;;5052475;28;20483;-77
2022/01/12 03:43:54;;;;;;;825.67;102.53;;;2.90;99.90;;;;;;5071505;28;20421;-76
2022/01/12 03:46:23;;;;;;;902.60;105.03;;;2.90;99.90;;;;;;5072177;28;20463;-77
2022/01/12 03:48:49;;;;;;;800.20;94.53;;;2.90;99.90;;;;;;5072304;28;20558;-77
2022/01/12 03:51:16;;;;;;;718.20;90.00;;;2.80;99.90;;;;;;5072600;28;20440;-77
2022/01/12 03:53:42;;;;;;;770.72;96.93;;;2.80;99.90;;;;;;5072321;28;20406;-77
2022/01/12 03:56:08;;;;;;;724.97;96.17;;;2.70;99.90;;;;;;5071457;28;20471;-77
2022/01/12 03:58:33;;;;;;;713.83;103.23;;;2.70;99.90;;;;;;5071571;28;20414;-76
2022/01/12 04:00:59;;;;;;;636.15;92.68;;;2.70;99.90;;;;;;5071231;28;20810;-77
2022/01/12 04:03:27;;;;;;;728.78;96.45;;;2.70;99.90;;;;;;5054689;28;20756;-77
2022/01/12 04:08:37;;;;;;;522.95;86.05;;;2.70;99.90;;;;;;5071301;28;20418;-76
2022/01/12 04:11:02;;;;;;;307.40;69.57;;;2.70;99.90;;;;;;5071366;28;20462;-76
2022/01/12 04:13:29;;;;;;;303.90;64.93;;;2.80;99.90;;;;;;5054373;28;20826;-77
2022/01/12 04:16:01;;;;;;;334.52;67.70;;;2.80;99.90;;;;;;5069570;28;20903;-77
2022/01/12 04:18:28;;;;;;;336.23;68.50;;;2.80;99.90;;;;;;5052162;28;20400;-77
2022/01/12 04:20:53;;;;;;;391.70;74.47;;;2.90;99.90;;;;;;5052404;28;20412;-77
2022/01/12 04:23:21;;;;;;;398.40;75.35;;;2.90;99.90;;;;;;5052253;28;20415;-77
2022/01/12 04:25:49;;;;;;;496.90;86.25;;;2.90;99.90;;;;;;5052064;28;20408;-77
2022/01/12 04:28:16;;;;;;;333.67;73.63;;;2.80;99.90;;;;;;5051178;28;21133;-77
2022/01/12 04:30:43;;;;;;;418.52;79.53;;;2.80;99.90;;;;;;5052014;28;20431;-77
2022/01/12 04:33:08;;;;;;;570.00;90.50;;;2.80;99.90;;;;;;5051595;28;20458;-77
2022/01/12 04:35:36;;;;;;;685.03;104.60;;;2.80;99.90;;;;;;5051622;28;20400;-77
2022/01/12 04:38:05;;;;;;;718.20;101.63;;;2.80;99.90;;;;;;5052122;28;20466;-77
2022/01/12 04:40:32;;;;;;;724.53;103.90;;;2.80;99.90;;;;;;5051093;28;20411;-77
2022/01/12 04:42:57;;;;;;;836.03;109.43;;;2.80;99.90;;;;;;5052223;28;20762;-77
2022/01/12 04:50:20;;;;;;;782.70;106.95;;;2.70;99.90;;;;;;5050887;28;20458;-77
2022/01/12 04:52:45;;;;;;;;;;;2.60;99.90;;;;;;5053504;28;20062;-77
2022/01/12 04:55:11;;;;;;;;;;;2.70;99.90;;;;;;5053363;28;20003;-77
2022/01/12 04:57:36;;;;;;;;;;;2.70;99.90;;;;;;5086778;28;19920;-77
2022/01/12 05:00:22;;;;;;;;;;;2.70;99.90;;;;;;5052655;28;19921;-77
2022/01/12 05:08:23;;;;;;;;;;;2.60;99.90;;;;;;5052776;28;19924;-77
2022/01/12 05:13:33;;;;;;;;;;;2.50;99.90;;;;;;5052178;28;20011;-77
2022/01/12 05:16:00;;;;;;;;;;;2.50;99.90;;;;;;5053913;28;20347;-77
2022/01/12 05:18:29;;;;;;;;;;;2.40;99.90;;;;;;5071901;28;19927;-76
2022/01/12 05:20:55;;;;;;;;;;;2.40;99.90;;;;;;5071308;28;20030;-77
2022/01/12 05:23:21;;;;;;;;;;;2.40;99.90;;;;;;5071920;28;20046;-77
2022/01/12 05:25:46;;;;;;;;;;;2.40;99.90;;;;;;5071905;28;19978;-77
2022/01/12 05:28:13;;;;;;;;;;;2.30;99.90;;;;;;5071773;28;19920;-77
2022/01/12 05:30:38;;;;;;;;;;;2.30;99.90;;;;;;5070926;28;19931;-77
2022/01/12 05:33:04;;;;;;;;;;;2.30;99.90;;;;;;5054755;28;19920;-77
2022/01/12 05:35:32;;;;;;;;;;;2.30;99.90;;;;;;5071759;28;19920;-77
2022/01/12 05:37:59;;;;;;;;;;;2.20;99.90;;;;;;5071541;28;20045;-77
2022/01/12 05:40:24;;;;;;;;;;;2.20;99.90;;;;;;5054388;28;19924;-77
2022/01/12 05:42:51;;;;;;;;;;;2.10;99.90;;;;;;5071663;28;19931;-77
2022/01/12 05:45:19;;;;;;;;;;;2.10;99.90;;;;;;5071389;28;19920;-77
2022/01/12 05:50:11;;;;;;;;;;;2.00;99.90;;;;;;5071249;28;20464;-77
2022/01/12 05:52:37;;;;;;;;;;;2.00;99.90;;;;;;5071631;28;19963;-77
2022/01/12 05:55:03;;;;;;;;;;;1.90;99.90;;;;;;5071237;28;19920;-77
2022/01/12 05:57:30;;;;;;;;;;;1.90;99.90;;;;;;5070727;28;19920;-77
2022/01/12 05:59:59;;;;;;;;;;;1.90;99.90;;;;;;5070956;28;20392;-77
2022/01/12 06:02:25;;;;;;;;;;;1.90;99.90;;;;;;5071197;28;19924;-77
2022/01/12 06:04:50;;;;;;;;;;;1.80;99.90;;;;;;5071033;28;20302;-76
2022/01/12 06:07:16;;;;;;;130.63;26.67;;;1.80;99.90;;;;;;5070839;28;19924;-77
2022/01/12 06:09:42;;;;;;;184.82;32.47;;;1.80;99.90;;;;;;5070185;28;20494;-77
2022/01/12 06:12:08;;;;;;;183.75;32.65;;;1.80;99.90;;;;;;5054190;28;20544;-77
2022/01/12 06:14:34;;;;;;;187.82;34.85;;;1.80;99.90;;;;;;5070561;28;20567;-77
2022/01/12 06:16:59;;;;;;;160.98;31.33;;;1.90;99.90;;;;;;5059823;28;20075;-77
2022/01/12 06:19:25;;;;;;;284.73;40.55;;;1.90;99.90;;;;;;5050057;28;20037;-77
2022/01/12 06:21:51;;;;;;;483.52;73.78;;;1.90;99.90;;;;;;5049302;28;20403;-77
2022/01/12 06:24:18;;;;;;;384.03;68.60;;;2.00;99.90;;;;;;5048869;28;20407;-77
2022/01/12 06:26:46;;;;;;;377.52;59.75;;;2.00;99.90;;;;;;5048984;28;20411;-77
2022/01/12 06:31:56;;;;;;;457.38;70.72;;;2.00;99.90;;;;;;5048869;28;20501;-74
2022/01/12 06:34:22;;;;;;;352.15;59.85;;;2.00;99.90;;;;;;5050365;28;20545;-75
2022/01/12 06:36:48;;;;;;;403.83;62.50;;;2.00;99.90;;;;;;5081718;28;20410;-76
2022/01/12 06:39:17;;;;;;;283.95;49.67;;;1.90;99.90;;;;;;5067125;28;20414;-74
2022/01/12 06:41:44;;;;;;;509.47;75.70;;;1.90;99.90;;;;;;5087652;28;20406;-76
2022/01/12 06:44:13;;;;;;;388.15;61.72;;;1.90;99.90;;;;;;5059919;28;20414;-76
2022/01/12 06:46:39;;;;;;;346.20;51.75;;;1.90;99.90;;;;;;5033366;28;20404;-76
2022/01/12 06:49:05;;;;;;;275.80;45.75;;;1.90;99.90;;;;;;5032910;28;20427;-76
2022/01/12 06:51:31;;;;;;;352.35;57.08;;;1.90;99.90;;;;;;5049802;28;20403;-77
2022/01/12 06:53:56;;;;;;;333.00;50.88;;;1.90;99.90;;;;;;5049743;28;21384;-76
2022/01/12 06:56:22;;;;;;;310.57;47.73;;;1.90;99.90;;;;;;5048791;28;20928;-76
2022/01/12 06:58:48;;;;;;;329.85;53.63;;;1.80;99.90;;;;;;5048674;28;20416;-77
2022/01/12 07:01:14;;;;;;;318.65;48.95;;;1.80;99.90;;;;;;5049560;28;20409;-76
2022/01/12 07:03:40;;;;;;;293.15;54.65;;;1.70;99.90;;;;;;5032734;28;20475;-77
2022/01/12 07:06:06;;;;;;;348.15;51.42;;;1.70;99.90;;;;;;5049135;28;20492;-76
2022/01/12 07:08:34;;;;;;;307.55;51.40;;;1.70;99.90;;;;;;5049764;28;20400;-77
2022/01/12 07:11:00;;;;;;;276.92;47.40;;;1.70;99.90;;;;;;5050745;28;20423;-77
2022/01/12 07:13:26;;;;;;;195.63;39.15;;;1.60;99.90;;;;;;5053846;28;20465;-76
2022/01/12 07:15:52;;;;;;;215.48;43.38;;;1.60;99.90;;;;;;5053711;28;20446;-77
2022/01/12 07:18:19;;;;;;;290.90;51.28;;;1.60;99.90;;;;;;5073456;28;20402;-77
2022/01/12 07:20:44;;;;;;;191.10;39.60;;;1.60;99.90;;;;;;5073404;28;20697;-76
2022/01/12 07:23:11;;;;;;;208.73;46.10;;;1.50;99.90;;;;;;5073371;28;20497;-76
2022/01/12 07:25:37;;;;;;;153.48;40.17;;;1.50;99.90;;;;;;5073313;28;21050;-77
2022/01/12 07:28:03;;;;;;;301.30;50.30;;;1.50;99.90;;;;;;5072813;28;20401;-76
2022/01/12 07:30:28;;;;;;;190.70;39.55;;;1.50;99.90;;;;;;5072479;28;20524;-76
2022/01/12 07:32:54;;;;;;;200.35;43.20;;;1.50;99.90;;;;;;5072904;28;20402;-76
2022/01/12 07:35:20;;;;;;;216.37;45.10;;;1.50;99.90;;;;;;5072441;28;20398;-77
2022/01/12 07:37:47;;;;;;;301.67;47.35;;;1.50;99.90;;;;;;5072858;28;20433;-76
2022/01/12 07:40:13;;;;;;;300.58;47.17;;;1.50;99.90;;;;;;5072765;28;20452;-77
2022/01/12 07:42:38;;;;;;;295.73;48.78;;;1.50;99.90;;;;;;5056139;28;20920;-77
2022/01/12 07:45:05;;;;;;;221.23;42.10;;;1.40;99.90;;;;;;5072848;28;20818;-77
2022/01/12 07:47:31;;;;;;;234.23;45.05;;;1.40;99.90;;;;;;5072631;28;20497;-76
2022/01/12 07:49:58;;;;;;;213.73;42.53;;;1.40;99.90;;;;;;5072159;28;20550;-77
2022/01/12 07:52:25;;;;;;;201.30;40.10;;;1.40;99.90;;;;;;5072467;28;21038;-76
2022/01/12 07:54:51;;;;;;;286.03;50.60;;;1.40;99.90;;;;;;5055843;28;20394;-76
2022/01/12 07:57:17;;;;;;;251.93;43.10;;;1.40;99.90;;;;;;5072314;28;20455;-76
2022/01/12 07:59:43;;;;;;;215.33;40.13;;;1.30;99.90;;;;;;5055736;28;20434;-77
2022/01/12 08:02:09;;;;;;;192.20;37.97;;;1.30;99.90;;;;;;5072928;28;20429;-77
2022/01/12 08:04:35;;;;;;;183.27;39.10;;;1.30;99.90;;;;;;5072530;28;20413;-77
2022/01/12 08:07:03;;;;;;;237.40;41.30;;;1.30;99.90;;;;;;5071906;28;20899;-77
2022/01/12 08:09:29;;;;;;;207.00;40.72;;;1.30;99.90;;;;;;5072065;28;20480;-77
2022/01/12 08:11:54;;;;;;;223.35;41.63;;;1.30;99.90;;;;;;5055632;28;20402;-77
2022/01/12 08:14:20;;;;;;;202.63;39.53;;;1.30;99.90;;;;;;5072393;28;20442;-77
2022/01/12 08:16:45;;;;;;;211.18;41.28;;;1.30;99.90;;;;;;5063519;28;20399;-77
2022/01/12 08:19:11;;;;;;;201.80;40.40;;;1.20;99.90;;;;;;5051991;28;20411;-77
2022/01/12 08:21:37;;;;;;;162.90;36.67;;;1.20;99.90;;;;;;5052149;28;20852;-77
2022/01/12 08:24:03;;;;;;;114.20;31.73;;;1.20;99.90;;;;;;5051395;28;20429;-76
2022/01/12 08:26:28;;;;;;;163.60;36.08;;;1.20;99.90;;;;;;5052035;28;20499;-77
2022/01/12 08:28:54;;;;;;;187.40;35.90;;;1.20;99.90;;;;;;5051952;28;20435;-77
2022/01/12 08:31:22;;;;;;;197.30;38.73;;;1.10;99.90;;;;;;5051999;28;20427;-77
2022/01/12 08:33:48;;;;;;;173.77;35.33;;;1.20;99.90;;;;;;5051614;28;20499;-77
2022/01/12 08:36:15;;;;;;;181.50;31.37;;;1.20;99.90;;;;;;5051435;28;20486;-77
2022/01/12 08:38:42;;;;;;;216.95;37.13;;;1.20;99.90;;;;;;5051810;28;20758;-77
2022/01/12 08:41:08;;;;;;;170.63;37.20;;;1.20;99.90;;;;;;5051401;28;20435;-77
2022/01/12 08:43:33;;;;;;;179.17;34.47;;;1.20;99.90;;;;;;5051025;28;20447;-77
2022/01/12 08:45:59;;;;;;;154.95;32.78;;;1.30;99.90;;;;;;5051889;28;20440;-77
2022/01/12 08:48:25;;;;;;;266.15;44.40;;;1.30;99.90;;;;;;5051411;28;20922;-77
2022/01/12 08:50:51;;;;;;;294.77;46.53;;;1.40;99.90;;;;;;5051354;28;20394;-77
2022/01/12 08:53:17;;;;;;;202.00;35.00;;;1.40;99.90;;;;;;5051078;28;20412;-77
2022/01/12 08:55:42;;;;;;;269.57;41.53;;;1.40;99.90;;;;;;5051611;28;20537;-77
2022/01/12 08:58:08;;;;;;;228.55;37.53;;;1.40;99.90;;;;;;5035237;28;20400;-77
2022/01/12 09:00:34;;;;;;;291.00;44.78;;;1.50;99.90;;;;;;5051029;28;20408;-77
2022/01/12 09:03:01;;;;;;;181.07;34.20;;;1.50;99.90;;;;;;5051578;28;20770;-77
2022/01/12 09:05:28;;;;;;;167.38;33.88;;;1.50;99.90;;;;;;5034515;28;20408;-77
2022/01/12 09:07:55;;;;;;;171.23;40.27;;;1.50;99.90;;;;;;5050985;28;20442;-77
2022/01/12 09:10:21;;;;;;;204.93;38.20;;;1.50;99.90;;;;;;5050275;28;20437;-77
2022/01/12 09:12:47;;;;;;;173.10;36.90;;;1.60;99.90;;;;;;5050457;28;20819;-77
2022/01/12 09:15:13;;;;;;;191.18;40.42;;;1.60;99.90;;;;;;5049650;28;20449;-76
2022/01/12 09:17:41;;;;;;;206.03;36.00;;;1.60;99.90;;;;;;5066177;28;20406;-77
2022/01/12 09:20:08;;;;;;;166.77;35.08;;;1.70;99.90;;;;;;5070036;28;20406;-77
2022/01/12 09:22:34;;;;;;;189.10;38.42;;;1.70;99.90;;;;;;5052831;28;20564;-77
2022/01/12 09:25:00;;;;;;;174.15;34.33;;;1.70;99.90;;;;;;5069853;28;20402;-77
2022/01/12 09:27:26;;;;;;;159.57;34.17;;;1.70;99.90;;;;;;5053352;28;20427;-77
2022/01/12 09:29:51;;;;;;;193.85;38.05;;;1.80;99.90;;;;;;5052629;28;20534;-77
2022/01/12 09:32:17;;;;;;;209.50;37.45;;;1.80;99.90;;;;;;5069431;28;20402;-77
2022/01/12 09:34:43;;;;;;;179.43;39.23;;;1.90;99.90;;;;;;5068986;28;20398;-77
2022/01/12 09:37:09;;;;;;;165.60;27.83;;;1.90;99.90;;;;;;5054466;28;20097;-77
2022/01/12 09:39:35;;;;;;;177.77;26.23;;;1.90;99.90;;;;;;5054326;28;20040;-77
2022/01/12 09:42:02;;;;;;;114.05;21.42;;;2.00;99.90;;;;;;5070688;28;20048;-77
2022/01/12 09:44:33;;;;;;;157.50;22.27;;;2.00;99.90;;;;;;5071158;28;20451;-77
2022/01/12 09:47:00;;;;;;;111.80;18.60;;;2.00;99.90;;;;;;5070666;28;20510;-77
2022/01/12 09:49:26;;;;;;;;;;;2.10;99.90;;;;;;5054612;28;20494;-77
2022/01/12 09:51:52;;;;;;;159.32;23.23;;;2.10;99.90;;;;;;5071077;28;19978;-76
2022/01/12 09:54:19;;;;;;;154.88;22.25;;;2.20;99.90;;;;;;5054167;28;20494;-77
2022/01/12 09:56:44;;;;;;;187.50;34.28;;;2.20;99.90;;;;;;5069146;28;20409;-77
2022/01/12 09:59:10;;;;;;;183.70;35.08;;;2.20;99.90;;;;;;5052765;28;20459;-77
2022/01/12 10:01:45;;;;;;;136.30;32.50;;;2.30;99.90;;;;;;5069529;28;20402;-77
2022/01/12 10:04:19;;;;;;;150.98;30.13;;;2.30;99.90;;;;;;5069541;28;20796;-77
2022/01/12 10:06:47;;;;;;;159.05;33.33;;;2.30;99.90;;;;;;5069337;28;20413;-77
2022/01/12 10:09:14;;;;;;;182.15;34.75;;;2.40;99.90;;;;;;5052722;28;20784;-77
2022/01/12 10:12:00;;;;;;;146.93;31.38;;;2.40;99.90;;;;;;5052394;28;20476;-77
2022/01/12 10:14:52;;;;;;;140.07;24.33;;;2.50;99.90;;;;;;5070517;28;20042;-77
2022/01/12 10:17:35;;;;;;;157.13;23.27;;;2.50;99.90;;;;;;5057504;28;21009;-77
2022/01/12 10:20:19;;;;;;;127.25;21.05;;;2.50;99.90;;;;;;5033546;28;20059;-77
2022/01/12 10:23:07;;;;;;;125.80;21.30;;;2.60;99.90;;;;;;5050429;28;20546;-77
2022/01/12 10:25:33;;;;;;;110.47;19.67;;;2.60;99.90;;;;;;5050309;28;20059;-77
2022/01/12 10:28:12;;;;;;;96.53;18.45;;;2.70;99.90;;;;;;5051437;28;20364;-77
2022/01/12 10:30:39;;;;;;;115.60;18.67;;;2.70;99.90;;;;;;5050997;28;20049;-77
2022/01/12 10:33:06;;;;;;;172.88;24.67;;;2.80;99.90;;;;;;5051412;28;20052;-77
2022/01/12 10:35:39;;;;;;;119.38;18.58;;;2.80;99.90;;;;;;5051674;28;20047;-77
2022/01/12 10:38:16;;;;;;;92.88;17.73;;;2.90;99.90;;;;;;5050989;28;20048;-77
2022/01/12 10:40:49;;;;;;;137.95;19.77;;;3.00;99.90;;;;;;5051053;28;20490;-77
2022/01/12 10:43:38;;;;;;;98.65;18.17;;;3.00;99.90;;;;;;5051451;28;20055;-77
2022/01/12 10:46:14;;;;;;;158.15;22.85;;;3.10;99.90;;;;;;5052483;28;20051;-77
2022/01/12 10:48:48;;;;;;;91.70;15.90;;;3.00;99.90;;;;;;5055308;28;20131;-77
2022/01/12 10:51:19;;;;;;;107.72;18.60;;;3.10;99.90;;;;;;5055017;28;20052;-77
2022/01/12 10:53:46;;;;;;;94.85;17.60;;;3.10;99.90;;;;;;5055181;28;20053;-77
2022/01/12 10:56:18;;;;;;;117.47;20.50;;;3.20;99.90;;;;;;5055059;28;20131;-77
2022/01/12 10:58:46;;;;;;;123.10;19.58;;;3.20;99.90;;;;;;5054781;28;20056;-78
2022/01/12 11:01:14;;;;;;;106.00;18.92;;;3.30;99.90;;;;;;5055002;28;20041;-77
2022/01/12 11:03:41;;;;;;;163.90;23.10;;;3.40;99.90;;;;;;5054303;28;20051;-77
2022/01/12 11:06:07;;;;;;;154.82;25.98;;;3.50;99.90;;;;;;5038154;28;20048;-77
2022/01/12 11:08:34;;;;;;;146.23;30.13;;;3.50;99.90;;;;;;5053514;28;20439;-77
2022/01/12 11:11:01;;;;;;;124.40;26.95;;;3.60;99.90;;;;;;5016515;28;20426;-77
2022/01/12 11:13:28;;;;;;;180.27;32.37;;;3.60;99.90;;;;;;5029683;28;20446;-77
2022/01/12 11:15:56;;;;;;;153.88;26.73;;;3.70;99.90;;;;;;5031577;28;20091;-77
2022/01/12 11:18:25;;;;;;;149.18;23.85;;;3.80;99.90;;;;;;5032452;28;20068;-77
2022/01/12 11:20:54;;;;;;;135.25;21.33;;;3.90;99.90;;;;;;5031777;28;20057;-77
2022/01/12 11:23:20;;;;;;;171.38;24.10;;;3.90;99.90;;;;;;5014874;28;20416;-77
2022/01/12 11:25:51;;;;;;;182.82;25.30;;;4.00;99.90;;;;;;5031408;28;20084;-77
2022/01/12 11:28:26;;;;;;;109.20;19.52;;;4.00;99.90;;;;;;5031257;28;20049;-77
2022/01/12 11:30:51;;;;;;;;;;;4.00;99.90;;;;;;5031275;28;20570;-76
2022/01/12 11:33:45;;;;;;;140.38;21.13;;;4.10;99.90;;;;;;5014365;28;19921;-77
2022/01/12 11:36:15;;;;;;;140.75;21.50;;;4.20;99.90;;;;;;5029252;28;20057;-77
2022/01/12 11:38:47;;;;;;;173.50;24.83;;;4.20;99.90;;;;;;5031209;28;20041;-77
2022/01/12 11:41:29;;;;;;;165.60;25.50;;;4.30;99.90;;;;;;5014283;28;20045;-77
2022/01/12 11:44:03;;;;;;;138.88;22.70;;;4.30;99.90;;;;;;5031117;28;20075;-77
2022/01/12 11:46:54;;;;;;;145.05;25.05;;;4.40;99.90;;;;;;5030999;28;20049;-77
2022/01/12 11:49:38;;;;;;;112.53;19.98;;;4.40;99.90;;;;;;5030576;28;20049;-77
2022/01/12 11:52:22;;;;;;;171.23;25.77;;;4.50;99.90;;;;;;5031084;28;20060;-77
2022/01/12 11:54:52;;;;;;;193.27;26.17;;;4.50;99.90;;;;;;5030718;28;20099;-77
2022/01/12 11:57:21;;;;;;;175.82;26.25;;;4.50;99.90;;;;;;5029490;28;20041;-77
2022/01/12 11:59:53;;;;;;;131.82;22.20;;;4.60;99.90;;;;;;5030397;28;20092;-77
2022/01/12 12:02:22;;;;;;;170.35;25.52;;;4.60;99.90;;;;;;5030769;28;20825;-77
2022/01/12 12:04:57;;;;;;;161.45;27.05;;;4.60;99.90;;;;;;5030945;28;20416;-77
2022/01/12 12:07:24;;;;;;;129.50;24.50;;;4.70;99.90;;;;;;5030424;28;20144;-77
2022/01/12 12:09:53;;;;;;;159.52;35.40;;;4.70;99.90;;;;;;5035974;28;20421;-76
2022/01/12 12:12:37;;;;;;;167.93;39.67;;;4.80;99.90;;;;;;5048986;28;21104;-77
2022/01/12 12:15:07;;;;;;;146.27;34.80;;;4.80;99.90;;;;;;5048649;28;20417;-77
2022/01/12 12:17:36;;;;;;;200.05;42.92;;;4.80;99.90;;;;;;5032138;28;20413;-77
2022/01/12 12:20:05;;;;;;;203.70;42.50;;;4.90;99.90;;;;;;5048748;28;20428;-77
2022/01/12 12:22:33;;;;;;;196.55;41.92;;;4.90;99.90;;;;;;5048287;28;20451;-77
2022/01/12 12:25:03;;;;;;;197.63;43.67;;;4.90;99.90;;;;;;5049922;28;20437;-77
2022/01/12 12:27:30;;;;;;;190.98;40.58;;;5.00;99.90;;;;;;5050001;28;20499;-77
2022/01/12 12:29:56;;;;;;;192.75;43.65;;;5.00;99.90;;;;;;5048064;28;20473;-77
2022/01/12 12:32:43;;;;;;;171.85;41.80;;;5.00;99.90;;;;;;5048571;28;20472;-77
2022/01/12 12:35:13;;;;;;;202.18;45.58;;;5.10;99.90;;;;;;5048632;28;20780;-77
2022/01/12 12:37:45;;;;;;;166.47;42.13;;;5.10;99.90;;;;;;5048638;28;20445;-77
2022/01/12 12:40:15;;;;;;;155.43;41.50;;;5.20;99.90;;;;;;5031709;28;20444;-77
2022/01/12 12:42:41;;;;;;;132.00;31.50;;;5.20;99.90;;;;;;5049456;28;20071;-77
2022/01/12 12:45:08;;;;;;;121.40;37.72;;;5.20;99.90;;;;;;5048550;28;20408;-77
2022/01/12 12:47:34;;;;;;;115.95;37.60;;;5.30;99.90;;;;;;5048297;28;20443;-77
2022/01/12 12:50:03;;;;;;;118.82;37.70;;;5.30;99.90;;;;;;5048162;28;20928;-77
2022/01/12 12:52:32;;;;;;;120.18;37.42;;;5.40;99.90;;;;;;5048348;28;20428;-77
2022/01/12 12:55:00;;;;;;;103.40;34.85;;;5.40;99.90;;;;;;5048188;28;20896;-77
2022/01/12 12:57:28;;;;;;;129.83;41.23;;;5.40;99.90;;;;;;5048093;28;20738;-77
2022/01/12 13:00:21;;;;;;;102.03;34.60;;;5.50;99.90;;;;;;5048331;28;20518;-76
2022/01/12 13:02:49;;;;;;;125.38;36.63;;;5.50;99.90;;;;;;5047964;28;20464;-76
2022/01/12 13:05:24;;;;;;;174.67;39.40;;;5.50;99.90;;;;;;5047787;28;20409;-77
2022/01/12 13:07:51;;;;;;;174.55;41.47;;;5.50;99.90;;;;;;5049356;28;20492;-77
2022/01/12 13:10:20;;;;;;;154.23;38.33;;;5.50;99.90;;;;;;5047466;28;20400;-77
2022/01/12 13:12:51;;;;;;;162.98;41.22;;;5.50;99.90;;;;;;5047782;28;20919;-77
2022/01/12 13:15:28;;;;;;;122.35;35.50;;;5.50;99.90;;;;;;5047381;28;20500;-77
2022/01/12 13:18:08;;;;;;;111.50;34.13;;;5.50;99.90;;;;;;5066774;28;20411;-77
2022/01/12 13:23:32;;;;;;;116.70;34.28;;;5.60;99.90;;;;;;5067694;28;20418;-77
2022/01/12 13:26:01;;;;;;;122.57;35.95;;;5.50;99.90;;;;;;5066959;28;20427;-77
2022/01/12 13:28:27;;;;;;;87.38;30.15;;;5.60;99.90;;;;;;5067246;28;20413;-77
2022/01/12 13:30:58;;;;;;;91.65;31.55;;;5.60;99.90;;;;;;5067642;28;20471;-77
2022/01/12 13:33:37;;;;;;;97.68;33.67;;;5.60;99.90;;;;;;5050730;28;20404;-76
2022/01/12 13:36:23;;;;;;;92.88;32.47;;;5.70;99.90;;;;;;5067398;28;20790;-77
2022/01/12 13:38:59;;;;;;;79.23;28.93;;;5.70;99.90;;;;;;5067642;28;20420;-77
2022/01/12 13:41:30;;;;;;;75.60;27.20;;;5.70;99.90;;;;;;5067222;28;20494;-77
2022/01/12 13:43:59;;;;;;;87.50;30.17;;;5.70;99.90;;;;;;5067157;28;20408;-77
2022/01/12 13:46:33;;;;;;;85.35;29.75;;;5.70;99.90;;;;;;5067157;28;20404;-77
2022/01/12 13:51:37;;;;;;;83.13;29.02;;;5.70;99.90;;;;;;5067444;28;20517;-77
2022/01/12 13:54:06;;;;;;;85.27;29.90;;;5.70;99.90;;;;;;5067308;28;20475;-77
2022/01/12 13:56:50;;;;;;;78.28;28.17;;;5.70;99.90;;;;;;5050181;28;20844;-77
2022/01/12 13:59:17;;;;;;;92.80;30.67;;;5.70;99.90;;;;;;5050253;28;20412;-77
2022/01/12 14:01:44;;;;;;;85.33;28.37;;;5.70;99.90;;;;;;5067236;28;20404;-77
2022/01/12 14:04:17;;;;;;;93.40;30.00;;;5.70;99.90;;;;;;5066539;28;20414;-76
2022/01/12 14:06:46;;;;;;;75.13;26.20;;;5.70;99.90;;;;;;5067032;28;20890;-77
2022/01/12 14:09:34;;;;;;;78.28;27.42;;;5.70;99.90;;;;;;5068952;28;20782;-77